Strona główna
METAR-TAF:

METAR-TAF

Lotnisko :

Port lotniczy Czyta

Czyta, Rosja

Szerokość geograficzna: 52-05N, Długość geograficzna: 113-29E, wysokość: 685 m

Aktualna obserwacja pogody

Raport powstał 33 minut temu, godzina 22:00 UTC
Wiatr 4 kt od północno-północny zachód
Temperatura -5°C
Wilgotność 86%
Ciśnienie 1021 hPa
Widzialność 10 km lub więcej

METAR: UIAA 182200Z 33002MPS 9999 NSC M05/M07 Q1021 R29/70D NOSIG RMK QFE707/0942

czas: 07:33 (22:33 UTC)

Prognoza

Raport powstał 2 godziny i 33 minut temu, godzina 20:00 UTC
Prognoza ważna od 18 godzina 21 UTC do 19 godzina 21 UTC
Wiatr 6 kt od zachodnio-południowy zachód
Widzialność 10 km lub więcej
Przejściowo
od 18 godzina 21 UTC do 19 godzina 01 UTC
Widzialność: 0500 m
na wysokości 100 ft
marznąca mgła

TAF: UIAA 182000Z 1821/1921 24003MPS 9999 NSC TEMPO 1821/1901 0500 FZFG VV001

Obserwacja i prognoza pogody dla ponad 4000 lotnisk (raport METAR i TAF).

Dostępne stacje oznaczono żółtymi i czerwonymi punktami na mapie.

Najedź kursorem aby zobaczyć nazwę stacji.

Kliknij aby zobaczyć obserwacje i prognozy pogody.

Aby zmienić mapę: kliknij na zielony przycisk z czarnym krzyżykiem, aby powiększyć; na zielony przycisk z myślnikiem, aby pomniejszyć; na zielone strzałki, aby przejść do map sąsiednich.


METAR-TAF: